sensor_id;sensor_type;location;lat;lon;timestamp;P1;durP1;ratioP1;P2;durP2;ratioP2
69744;SDS011;57015;50.120;-5.168;2023-03-23T00:01:18;14.83;;;2.10;;
69744;SDS011;57015;50.120;-5.168;2023-03-23T00:03:46;24.20;;;3.45;;
69744;SDS011;57015;50.120;-5.168;2023-03-23T00:06:13;15.93;;;2.17;;
69744;SDS011;57015;50.120;-5.168;2023-03-23T00:08:43;24.83;;;3.03;;
69744;SDS011;57015;50.120;-5.168;2023-03-23T00:11:12;21.40;;;2.42;;
69744;SDS011;57015;50.120;-5.168;2023-03-23T00:13:43;16.52;;;1.67;;
69744;SDS011;57015;50.120;-5.168;2023-03-23T00:16:10;19.00;;;2.88;;
69744;SDS011;57015;50.120;-5.168;2023-03-23T00:18:51;17.70;;;2.27;;
69744;SDS011;57015;50.120;-5.168;2023-03-23T00:21:28;24.27;;;2.53;;
69744;SDS011;57015;50.120;-5.168;2023-03-23T00:24:11;18.35;;;2.33;;
69744;SDS011;57015;50.120;-5.168;2023-03-23T00:26:40;17.70;;;2.13;;
69744;SDS011;57015;50.120;-5.168;2023-03-23T00:29:10;20.15;;;2.25;;
69744;SDS011;57015;50.120;-5.168;2023-03-23T00:31:40;19.17;;;3.40;;
69744;SDS011;57015;50.120;-5.168;2023-03-23T00:34:11;16.23;;;1.73;;
69744;SDS011;57015;50.120;-5.168;2023-03-23T00:36:37;19.17;;;1.90;;
69744;SDS011;57015;50.120;-5.168;2023-03-23T00:39:07;17.30;;;1.95;;
69744;SDS011;57015;50.120;-5.168;2023-03-23T00:41:33;14.57;;;1.97;;
69744;SDS011;57015;50.120;-5.168;2023-03-23T00:44:01;16.20;;;2.92;;
69744;SDS011;57015;50.120;-5.168;2023-03-23T00:46:27;17.77;;;1.63;;
69744;SDS011;57015;50.120;-5.168;2023-03-23T00:48:53;10.88;;;2.03;;
69744;SDS011;57015;50.120;-5.168;2023-03-23T00:51:19;21.85;;;2.83;;
69744;SDS011;57015;50.120;-5.168;2023-03-23T00:53:45;19.60;;;2.08;;
69744;SDS011;57015;50.120;-5.168;2023-03-23T00:56:11;24.52;;;2.88;;
69744;SDS011;57015;50.120;-5.168;2023-03-23T00:58:37;20.33;;;2.43;;
69744;SDS011;57015;50.120;-5.168;2023-03-23T01:01:02;23.33;;;2.60;;
69744;SDS011;57015;50.120;-5.168;2023-03-23T01:03:28;14.87;;;2.00;;
69744;SDS011;57015;50.120;-5.168;2023-03-23T01:05:54;16.13;;;2.22;;
69744;SDS011;57015;50.120;-5.168;2023-03-23T01:08:20;23.15;;;2.17;;
69744;SDS011;57015;50.120;-5.168;2023-03-23T01:10:47;27.17;;;2.80;;
69744;SDS011;57015;50.120;-5.168;2023-03-23T01:13:13;22.47;;;2.30;;
69744;SDS011;57015;50.120;-5.168;2023-03-23T01:15:39;15.25;;;2.03;;
69744;SDS011;57015;50.120;-5.168;2023-03-23T01:18:04;22.17;;;2.60;;
69744;SDS011;57015;50.120;-5.168;2023-03-23T01:20:30;23.23;;;2.60;;
69744;SDS011;57015;50.120;-5.168;2023-03-23T01:22:57;29.83;;;2.90;;
69744;SDS011;57015;50.120;-5.168;2023-03-23T01:25:34;15.95;;;1.90;;
69744;SDS011;57015;50.120;-5.168;2023-03-23T01:28:00;18.63;;;2.83;;
69744;SDS011;57015;50.120;-5.168;2023-03-23T01:30:26;21.40;;;2.37;;
69744;SDS011;57015;50.120;-5.168;2023-03-23T01:32:51;18.23;;;3.20;;
69744;SDS011;57015;50.120;-5.168;2023-03-23T01:35:17;22.88;;;1.98;;
69744;SDS011;57015;50.120;-5.168;2023-03-23T01:37:43;23.07;;;2.50;;
69744;SDS011;57015;50.120;-5.168;2023-03-23T01:40:09;13.25;;;1.88;;
69744;SDS011;57015;50.120;-5.168;2023-03-23T01:42:36;16.48;;;2.42;;
69744;SDS011;57015;50.120;-5.168;2023-03-23T01:47:43;17.05;;;2.83;;
69744;SDS011;57015;50.120;-5.168;2023-03-23T01:50:08;18.83;;;1.97;;
69744;SDS011;57015;50.120;-5.168;2023-03-23T01:52:33;13.25;;;1.60;;
69744;SDS011;57015;50.120;-5.168;2023-03-23T01:55:01;19.27;;;2.37;;
69744;SDS011;57015;50.120;-5.168;2023-03-23T01:57:27;18.80;;;2.90;;
69744;SDS011;57015;50.120;-5.168;2023-03-23T01:59:54;19.85;;;1.92;;
69744;SDS011;57015;50.120;-5.168;2023-03-23T02:02:22;17.35;;;1.95;;
69744;SDS011;57015;50.120;-5.168;2023-03-23T02:04:48;17.73;;;2.60;;
69744;SDS011;57015;50.120;-5.168;2023-03-23T02:07:15;17.38;;;2.40;;
69744;SDS011;57015;50.120;-5.168;2023-03-23T02:09:42;13.93;;;1.90;;
69744;SDS011;57015;50.120;-5.168;2023-03-23T02:12:08;20.93;;;2.27;;
69744;SDS011;57015;50.120;-5.168;2023-03-23T02:14:33;17.63;;;1.90;;
69744;SDS011;57015;50.120;-5.168;2023-03-23T02:25:06;31.80;;;3.90;;
69744;SDS011;57015;50.120;-5.168;2023-03-23T02:36:26;25.05;;;3.50;;
69744;SDS011;57015;50.120;-5.168;2023-03-23T02:38:57;25.83;;;3.58;;
69744;SDS011;57015;50.120;-5.168;2023-03-23T02:41:30;27.55;;;3.08;;
69744;SDS011;57015;50.120;-5.168;2023-03-23T02:43:57;22.00;;;3.05;;
69744;SDS011;57015;50.120;-5.168;2023-03-23T02:46:23;28.63;;;3.77;;
69744;SDS011;57015;50.120;-5.168;2023-03-23T02:48:49;29.63;;;3.40;;
69744;SDS011;57015;50.120;-5.168;2023-03-23T02:51:16;30.70;;;4.03;;
69744;SDS011;57015;50.120;-5.168;2023-03-23T02:53:43;27.53;;;2.97;;
69744;SDS011;57015;50.120;-5.168;2023-03-23T02:56:10;35.15;;;4.13;;
69744;SDS011;57015;50.120;-5.168;2023-03-23T02:58:36;27.42;;;3.10;;
69744;SDS011;57015;50.120;-5.168;2023-03-23T03:03:57;28.05;;;2.95;;
69744;SDS011;57015;50.120;-5.168;2023-03-23T03:06:25;26.80;;;3.05;;
69744;SDS011;57015;50.120;-5.168;2023-03-23T03:08:58;23.75;;;4.07;;
69744;SDS011;57015;50.120;-5.168;2023-03-23T03:11:29;21.67;;;2.60;;
69744;SDS011;57015;50.120;-5.168;2023-03-23T03:16:33;23.15;;;3.00;;
69744;SDS011;57015;50.120;-5.168;2023-03-23T03:19:34;16.35;;;2.50;;
69744;SDS011;57015;50.120;-5.168;2023-03-23T03:22:03;27.80;;;3.50;;
69744;SDS011;57015;50.120;-5.168;2023-03-23T03:24:29;23.90;;;2.60;;
69744;SDS011;57015;50.120;-5.168;2023-03-23T03:26:56;23.85;;;3.13;;
69744;SDS011;57015;50.120;-5.168;2023-03-23T03:29:34;17.55;;;2.42;;
69744;SDS011;57015;50.120;-5.168;2023-03-23T03:32:01;19.60;;;2.25;;
69744;SDS011;57015;50.120;-5.168;2023-03-23T03:34:30;20.73;;;2.15;;
69744;SDS011;57015;50.120;-5.168;2023-03-23T03:36:57;19.53;;;2.77;;
69744;SDS011;57015;50.120;-5.168;2023-03-23T03:39:24;21.30;;;3.03;;
69744;SDS011;57015;50.120;-5.168;2023-03-23T03:41:50;17.88;;;2.28;;
69744;SDS011;57015;50.120;-5.168;2023-03-23T03:44:15;19.40;;;1.90;;
69744;SDS011;57015;50.120;-5.168;2023-03-23T03:46:41;22.73;;;2.97;;
69744;SDS011;57015;50.120;-5.168;2023-03-23T03:49:07;17.33;;;1.98;;
69744;SDS011;57015;50.120;-5.168;2023-03-23T03:51:34;22.40;;;2.80;;
69744;SDS011;57015;50.120;-5.168;2023-03-23T03:54:00;24.20;;;3.17;;
69744;SDS011;57015;50.120;-5.168;2023-03-23T03:56:26;23.15;;;2.28;;
69744;SDS011;57015;50.120;-5.168;2023-03-23T03:58:51;23.47;;;2.53;;
69744;SDS011;57015;50.120;-5.168;2023-03-23T04:01:18;19.73;;;2.88;;
69744;SDS011;57015;50.120;-5.168;2023-03-23T04:03:46;23.80;;;2.27;;
69744;SDS011;57015;50.120;-5.168;2023-03-23T04:06:11;27.35;;;3.88;;
69744;SDS011;57015;50.120;-5.168;2023-03-23T04:08:40;21.83;;;2.83;;
69744;SDS011;57015;50.120;-5.168;2023-03-23T04:11:07;25.33;;;3.00;;
69744;SDS011;57015;50.120;-5.168;2023-03-23T04:13:33;26.85;;;2.60;;
69744;SDS011;57015;50.120;-5.168;2023-03-23T04:15:58;26.77;;;3.13;;
69744;SDS011;57015;50.120;-5.168;2023-03-23T04:18:25;25.83;;;3.33;;
69744;SDS011;57015;50.120;-5.168;2023-03-23T04:20:51;18.55;;;2.20;;
69744;SDS011;57015;50.120;-5.168;2023-03-23T04:23:17;25.10;;;3.07;;
69744;SDS011;57015;50.120;-5.168;2023-03-23T04:25:48;24.25;;;2.95;;
69744;SDS011;57015;50.120;-5.168;2023-03-23T04:28:15;25.02;;;2.50;;
69744;SDS011;57015;50.120;-5.168;2023-03-23T04:30:43;22.73;;;2.78;;
69744;SDS011;57015;50.120;-5.168;2023-03-23T04:33:09;25.60;;;2.57;;
69744;SDS011;57015;50.120;-5.168;2023-03-23T04:35:39;17.77;;;2.05;;
69744;SDS011;57015;50.120;-5.168;2023-03-23T04:38:05;20.08;;;2.28;;
69744;SDS011;57015;50.120;-5.168;2023-03-23T04:40:32;28.23;;;2.30;;
69744;SDS011;57015;50.120;-5.168;2023-03-23T04:43:01;28.02;;;3.10;;
69744;SDS011;57015;50.120;-5.168;2023-03-23T04:45:30;25.50;;;3.00;;
69744;SDS011;57015;50.120;-5.168;2023-03-23T04:47:56;23.85;;;2.60;;
69744;SDS011;57015;50.120;-5.168;2023-03-23T04:50:26;29.65;;;3.15;;
69744;SDS011;57015;50.120;-5.168;2023-03-23T04:52:53;29.53;;;3.73;;
69744;SDS011;57015;50.120;-5.168;2023-03-23T04:55:22;23.65;;;3.03;;
69744;SDS011;57015;50.120;-5.168;2023-03-23T04:57:48;25.65;;;3.45;;
69744;SDS011;57015;50.120;-5.168;2023-03-23T05:00:13;25.20;;;3.60;;
69744;SDS011;57015;50.120;-5.168;2023-03-23T05:02:41;26.88;;;3.47;;
69744;SDS011;57015;50.120;-5.168;2023-03-23T05:05:12;24.27;;;3.30;;
69744;SDS011;57015;50.120;-5.168;2023-03-23T05:07:38;26.17;;;3.90;;
69744;SDS011;57015;50.120;-5.168;2023-03-23T05:10:05;26.92;;;3.20;;
69744;SDS011;57015;50.120;-5.168;2023-03-23T05:12:32;27.15;;;3.58;;
69744;SDS011;57015;50.120;-5.168;2023-03-23T05:14:58;27.03;;;4.23;;
69744;SDS011;57015;50.120;-5.168;2023-03-23T05:17:23;24.87;;;3.43;;
69744;SDS011;57015;50.120;-5.168;2023-03-23T05:19:52;33.85;;;4.65;;
69744;SDS011;57015;50.120;-5.168;2023-03-23T05:22:17;26.10;;;4.60;;
69744;SDS011;57015;50.120;-5.168;2023-03-23T05:24:45;39.15;;;4.47;;
69744;SDS011;57015;50.120;-5.168;2023-03-23T05:27:12;39.55;;;5.93;;
69744;SDS011;57015;50.120;-5.168;2023-03-23T05:29:37;38.40;;;4.93;;
69744;SDS011;57015;50.120;-5.168;2023-03-23T05:32:05;34.60;;;4.30;;
69744;SDS011;57015;50.120;-5.168;2023-03-23T05:34:32;36.17;;;4.78;;
69744;SDS011;57015;50.120;-5.168;2023-03-23T05:36:59;35.72;;;4.47;;
69744;SDS011;57015;50.120;-5.168;2023-03-23T05:39:25;33.27;;;4.03;;
69744;SDS011;57015;50.120;-5.168;2023-03-23T05:41:51;44.67;;;4.90;;
69744;SDS011;57015;50.120;-5.168;2023-03-23T05:44:17;35.92;;;4.53;;
69744;SDS011;57015;50.120;-5.168;2023-03-23T05:46:43;31.20;;;4.07;;
69744;SDS011;57015;50.120;-5.168;2023-03-23T05:49:08;35.73;;;4.77;;
69744;SDS011;57015;50.120;-5.168;2023-03-23T05:51:34;38.05;;;4.60;;
69744;SDS011;57015;50.120;-5.168;2023-03-23T05:54:00;36.83;;;4.17;;
69744;SDS011;57015;50.120;-5.168;2023-03-23T05:56:25;38.80;;;5.07;;
69744;SDS011;57015;50.120;-5.168;2023-03-23T05:58:50;24.23;;;4.22;;
69744;SDS011;57015;50.120;-5.168;2023-03-23T06:01:16;30.20;;;3.77;;
69744;SDS011;57015;50.120;-5.168;2023-03-23T06:03:42;29.07;;;4.30;;
69744;SDS011;57015;50.120;-5.168;2023-03-23T06:06:09;24.95;;;2.50;;
69744;SDS011;57015;50.120;-5.168;2023-03-23T06:08:36;24.95;;;3.22;;
69744;SDS011;57015;50.120;-5.168;2023-03-23T06:11:02;24.27;;;3.55;;
69744;SDS011;57015;50.120;-5.168;2023-03-23T06:13:28;25.05;;;3.15;;
69744;SDS011;57015;50.120;-5.168;2023-03-23T06:15:56;31.17;;;3.57;;
69744;SDS011;57015;50.120;-5.168;2023-03-23T06:18:22;29.05;;;4.95;;
69744;SDS011;57015;50.120;-5.168;2023-03-23T06:20:48;37.30;;;4.63;;
69744;SDS011;57015;50.120;-5.168;2023-03-23T06:23:14;31.70;;;4.63;;
69744;SDS011;57015;50.120;-5.168;2023-03-23T06:25:39;28.23;;;3.87;;
69744;SDS011;57015;50.120;-5.168;2023-03-23T06:28:04;27.33;;;3.63;;
69744;SDS011;57015;50.120;-5.168;2023-03-23T06:30:31;26.90;;;4.10;;
69744;SDS011;57015;50.120;-5.168;2023-03-23T06:32:56;31.00;;;4.10;;
69744;SDS011;57015;50.120;-5.168;2023-03-23T06:35:22;24.63;;;3.38;;
69744;SDS011;57015;50.120;-5.168;2023-03-23T06:37:47;29.60;;;3.30;;
69744;SDS011;57015;50.120;-5.168;2023-03-23T06:40:12;32.57;;;3.07;;
69744;SDS011;57015;50.120;-5.168;2023-03-23T06:42:38;22.57;;;3.50;;
69744;SDS011;57015;50.120;-5.168;2023-03-23T06:45:04;18.17;;;2.83;;
69744;SDS011;57015;50.120;-5.168;2023-03-23T06:47:30;30.02;;;3.97;;
69744;SDS011;57015;50.120;-5.168;2023-03-23T06:49:56;28.90;;;4.47;;
69744;SDS011;57015;50.120;-5.168;2023-03-23T06:52:22;27.77;;;4.75;;
69744;SDS011;57015;50.120;-5.168;2023-03-23T06:54:52;22.50;;;3.00;;
69744;SDS011;57015;50.120;-5.168;2023-03-23T06:57:18;29.35;;;4.30;;
69744;SDS011;57015;50.120;-5.168;2023-03-23T06:59:44;30.40;;;4.27;;
69744;SDS011;57015;50.120;-5.168;2023-03-23T07:02:11;30.48;;;5.25;;
69744;SDS011;57015;50.120;-5.168;2023-03-23T07:04:40;26.80;;;3.47;;
69744;SDS011;57015;50.120;-5.168;2023-03-23T07:07:09;34.42;;;4.13;;
69744;SDS011;57015;50.120;-5.168;2023-03-23T07:09:36;26.67;;;4.32;;
69744;SDS011;57015;50.120;-5.168;2023-03-23T07:12:01;38.27;;;3.90;;
69744;SDS011;57015;50.120;-5.168;2023-03-23T07:14:27;49.00;;;6.82;;
69744;SDS011;57015;50.120;-5.168;2023-03-23T07:16:53;26.90;;;3.57;;
69744;SDS011;57015;50.120;-5.168;2023-03-23T07:19:18;37.50;;;4.35;;
69744;SDS011;57015;50.120;-5.168;2023-03-23T07:21:44;34.23;;;4.10;;
69744;SDS011;57015;50.120;-5.168;2023-03-23T07:24:10;39.30;;;6.30;;
69744;SDS011;57015;50.120;-5.168;2023-03-23T07:26:38;40.00;;;4.82;;
69744;SDS011;57015;50.120;-5.168;2023-03-23T07:29:05;34.72;;;4.57;;
69744;SDS011;57015;50.120;-5.168;2023-03-23T07:31:31;41.33;;;5.30;;
69744;SDS011;57015;50.120;-5.168;2023-03-23T07:33:57;33.05;;;4.13;;
69744;SDS011;57015;50.120;-5.168;2023-03-23T07:36:22;31.70;;;4.77;;
69744;SDS011;57015;50.120;-5.168;2023-03-23T07:38:47;30.83;;;4.07;;
69744;SDS011;57015;50.120;-5.168;2023-03-23T07:41:13;27.07;;;4.03;;
69744;SDS011;57015;50.120;-5.168;2023-03-23T07:43:38;30.33;;;3.63;;
69744;SDS011;57015;50.120;-5.168;2023-03-23T07:46:04;26.27;;;3.60;;
69744;SDS011;57015;50.120;-5.168;2023-03-23T07:48:30;17.33;;;2.30;;
69744;SDS011;57015;50.120;-5.168;2023-03-23T07:50:55;22.42;;;3.00;;
69744;SDS011;57015;50.120;-5.168;2023-03-23T07:53:20;18.70;;;2.50;;
69744;SDS011;57015;50.120;-5.168;2023-03-23T07:55:48;26.67;;;3.27;;
69744;SDS011;57015;50.120;-5.168;2023-03-23T07:58:13;26.23;;;2.90;;
69744;SDS011;57015;50.120;-5.168;2023-03-23T08:00:43;22.98;;;2.78;;
69744;SDS011;57015;50.120;-5.168;2023-03-23T08:03:09;19.57;;;3.17;;
69744;SDS011;57015;50.120;-5.168;2023-03-23T08:05:35;30.52;;;3.65;;
69744;SDS011;57015;50.120;-5.168;2023-03-23T08:08:00;28.07;;;3.70;;
69744;SDS011;57015;50.120;-5.168;2023-03-23T08:10:26;35.77;;;4.50;;
69744;SDS011;57015;50.120;-5.168;2023-03-23T08:12:52;29.05;;;3.40;;
69744;SDS011;57015;50.120;-5.168;2023-03-23T08:15:20;34.90;;;3.63;;
69744;SDS011;57015;50.120;-5.168;2023-03-23T08:17:46;33.78;;;4.45;;
69744;SDS011;57015;50.120;-5.168;2023-03-23T08:20:12;34.63;;;4.32;;
69744;SDS011;57015;50.120;-5.168;2023-03-23T08:22:39;36.00;;;4.90;;
69744;SDS011;57015;50.120;-5.168;2023-03-23T08:25:06;32.17;;;5.22;;
69744;SDS011;57015;50.120;-5.168;2023-03-23T08:27:33;34.97;;;4.65;;
69744;SDS011;57015;50.120;-5.168;2023-03-23T08:29:59;34.33;;;3.93;;
69744;SDS011;57015;50.120;-5.168;2023-03-23T08:32:24;35.40;;;5.93;;
69744;SDS011;57015;50.120;-5.168;2023-03-23T08:34:50;31.35;;;4.10;;
69744;SDS011;57015;50.120;-5.168;2023-03-23T08:37:16;21.48;;;4.53;;
69744;SDS011;57015;50.120;-5.168;2023-03-23T08:39:41;29.87;;;4.37;;
69744;SDS011;57015;50.120;-5.168;2023-03-23T08:42:08;32.65;;;3.95;;
69744;SDS011;57015;50.120;-5.168;2023-03-23T08:44:34;31.88;;;3.67;;
69744;SDS011;57015;50.120;-5.168;2023-03-23T08:47:00;28.30;;;4.17;;
69744;SDS011;57015;50.120;-5.168;2023-03-23T08:49:27;24.48;;;4.45;;
69744;SDS011;57015;50.120;-5.168;2023-03-23T08:51:53;26.70;;;4.10;;
69744;SDS011;57015;50.120;-5.168;2023-03-23T08:54:18;27.83;;;3.93;;
69744;SDS011;57015;50.120;-5.168;2023-03-23T08:56:44;30.50;;;4.03;;
69744;SDS011;57015;50.120;-5.168;2023-03-23T08:59:09;30.42;;;4.63;;
69744;SDS011;57015;50.120;-5.168;2023-03-23T09:01:35;22.80;;;3.20;;
69744;SDS011;57015;50.120;-5.168;2023-03-23T09:04:00;36.40;;;3.53;;
69744;SDS011;57015;50.120;-5.168;2023-03-23T09:06:26;23.02;;;3.42;;
69744;SDS011;57015;50.120;-5.168;2023-03-23T09:08:52;27.83;;;3.47;;
69744;SDS011;57015;50.120;-5.168;2023-03-23T09:11:19;35.85;;;5.00;;
69744;SDS011;57015;50.120;-5.168;2023-03-23T09:13:45;32.77;;;4.80;;
69744;SDS011;57015;50.120;-5.168;2023-03-23T09:16:10;30.17;;;5.00;;
69744;SDS011;57015;50.120;-5.168;2023-03-23T09:18:36;28.35;;;5.47;;
69744;SDS011;57015;50.120;-5.168;2023-03-23T09:21:02;35.22;;;4.82;;
69744;SDS011;57015;50.120;-5.168;2023-03-23T09:23:28;39.93;;;5.70;;
69744;SDS011;57015;50.120;-5.168;2023-03-23T09:25:55;37.13;;;6.13;;
69744;SDS011;57015;50.120;-5.168;2023-03-23T09:28:20;29.30;;;4.43;;
69744;SDS011;57015;50.120;-5.168;2023-03-23T09:30:46;35.67;;;5.23;;
69744;SDS011;57015;50.120;-5.168;2023-03-23T09:33:12;32.08;;;5.55;;
69744;SDS011;57015;50.120;-5.168;2023-03-23T09:35:38;44.13;;;4.97;;
69744;SDS011;57015;50.120;-5.168;2023-03-23T09:38:07;38.85;;;5.53;;
69744;SDS011;57015;50.120;-5.168;2023-03-23T09:40:42;34.40;;;5.38;;
69744;SDS011;57015;50.120;-5.168;2023-03-23T09:48:40;40.60;;;5.27;;
69744;SDS011;57015;50.120;-5.168;2023-03-23T09:54:13;39.55;;;6.00;;
69744;SDS011;57015;50.120;-5.168;2023-03-23T09:56:42;38.25;;;5.88;;
69744;SDS011;57015;50.120;-5.168;2023-03-23T09:59:27;43.85;;;6.07;;
69744;SDS011;57015;50.120;-5.168;2023-03-23T10:01:58;46.57;;;6.53;;
69744;SDS011;57015;50.120;-5.168;2023-03-23T10:04:44;41.08;;;5.60;;
69744;SDS011;57015;50.120;-5.168;2023-03-23T10:07:24;41.13;;;5.85;;
69744;SDS011;57015;50.120;-5.168;2023-03-23T10:09:55;38.25;;;5.35;;
69744;SDS011;57015;50.120;-5.168;2023-03-23T10:15:21;38.67;;;6.47;;
69744;SDS011;57015;50.120;-5.168;2023-03-23T10:20:33;49.33;;;7.03;;
69744;SDS011;57015;50.120;-5.168;2023-03-23T10:25:46;41.13;;;6.80;;
69744;SDS011;57015;50.120;-5.168;2023-03-23T10:30:48;47.88;;;7.32;;
69744;SDS011;57015;50.120;-5.168;2023-03-23T10:35:53;46.22;;;6.43;;
69744;SDS011;57015;50.120;-5.168;2023-03-23T10:38:37;36.75;;;6.70;;
69744;SDS011;57015;50.120;-5.168;2023-03-23T10:43:41;35.97;;;6.45;;
69744;SDS011;57015;50.120;-5.168;2023-03-23T10:46:14;48.65;;;6.47;;
69744;SDS011;57015;50.120;-5.168;2023-03-23T10:49:19;37.67;;;5.97;;
69744;SDS011;57015;50.120;-5.168;2023-03-23T10:51:59;31.08;;;5.78;;
69744;SDS011;57015;50.120;-5.168;2023-03-23T10:54:51;39.88;;;6.47;;
69744;SDS011;57015;50.120;-5.168;2023-03-23T10:57:23;34.17;;;5.40;;
69744;SDS011;57015;50.120;-5.168;2023-03-23T11:00:39;35.78;;;5.63;;
69744;SDS011;57015;50.120;-5.168;2023-03-23T11:03:04;42.50;;;5.97;;
69744;SDS011;57015;50.120;-5.168;2023-03-23T11:08:13;39.45;;;4.93;;
69744;SDS011;57015;50.120;-5.168;2023-03-23T11:10:41;39.78;;;6.72;;
69744;SDS011;57015;50.120;-5.168;2023-03-23T11:13:14;38.53;;;5.82;;
69744;SDS011;57015;50.120;-5.168;2023-03-23T11:15:42;42.00;;;6.77;;
69744;SDS011;57015;50.120;-5.168;2023-03-23T11:18:56;37.60;;;5.97;;
69744;SDS011;57015;50.120;-5.168;2023-03-23T11:21:08;40.00;;;7.03;;
69744;SDS011;57015;50.120;-5.168;2023-03-23T11:23:36;43.15;;;5.53;;
69744;SDS011;57015;50.120;-5.168;2023-03-23T11:26:21;31.17;;;5.50;;
69744;SDS011;57015;50.120;-5.168;2023-03-23T11:31:21;35.13;;;5.53;;
69744;SDS011;57015;50.120;-5.168;2023-03-23T11:36:32;37.53;;;5.03;;
69744;SDS011;57015;50.120;-5.168;2023-03-23T11:39:00;28.95;;;5.18;;
69744;SDS011;57015;50.120;-5.168;2023-03-23T11:41:32;28.43;;;4.27;;
69744;SDS011;57015;50.120;-5.168;2023-03-23T11:44:03;32.65;;;4.68;;
69744;SDS011;57015;50.120;-5.168;2023-03-23T11:46:35;26.40;;;3.70;;
69744;SDS011;57015;50.120;-5.168;2023-03-23T11:49:12;22.65;;;3.58;;
69744;SDS011;57015;50.120;-5.168;2023-03-23T11:51:48;27.60;;;3.95;;
69744;SDS011;57015;50.120;-5.168;2023-03-23T11:54:27;21.13;;;3.03;;
69744;SDS011;57015;50.120;-5.168;2023-03-23T11:56:55;30.85;;;3.67;;
69744;SDS011;57015;50.120;-5.168;2023-03-23T11:59:54;29.27;;;3.63;;
69744;SDS011;57015;50.120;-5.168;2023-03-23T12:10:01;19.38;;;1.90;;
69744;SDS011;57015;50.120;-5.168;2023-03-23T12:15:00;9.90;;;1.73;;
69744;SDS011;57015;50.120;-5.168;2023-03-23T12:22:51;15.85;;;3.22;;
69744;SDS011;57015;50.120;-5.168;2023-03-23T12:25:43;14.65;;;1.63;;
69744;SDS011;57015;50.120;-5.168;2023-03-23T12:33:59;16.43;;;2.37;;
69744;SDS011;57015;50.120;-5.168;2023-03-23T12:39:00;26.40;;;4.07;;
69744;SDS011;57015;50.120;-5.168;2023-03-23T12:44:52;25.52;;;3.97;;
69744;SDS011;57015;50.120;-5.168;2023-03-23T12:50:11;28.77;;;3.93;;
69744;SDS011;57015;50.120;-5.168;2023-03-23T12:55:26;29.05;;;5.50;;
69744;SDS011;57015;50.120;-5.168;2023-03-23T12:58:04;28.55;;;4.93;;
69744;SDS011;57015;50.120;-5.168;2023-03-23T13:03:49;36.00;;;5.17;;
69744;SDS011;57015;50.120;-5.168;2023-03-23T13:08:54;26.02;;;4.38;;
69744;SDS011;57015;50.120;-5.168;2023-03-23T13:14:03;36.88;;;4.22;;
69744;SDS011;57015;50.120;-5.168;2023-03-23T13:16:38;27.63;;;4.63;;
69744;SDS011;57015;50.120;-5.168;2023-03-23T13:21:48;28.70;;;4.40;;
69744;SDS011;57015;50.120;-5.168;2023-03-23T13:24:19;27.73;;;3.90;;
69744;SDS011;57015;50.120;-5.168;2023-03-23T13:26:48;24.23;;;3.25;;
69744;SDS011;57015;50.120;-5.168;2023-03-23T13:29:15;25.30;;;3.93;;
69744;SDS011;57015;50.120;-5.168;2023-03-23T13:31:44;21.75;;;2.95;;
69744;SDS011;57015;50.120;-5.168;2023-03-23T13:34:16;20.02;;;2.92;;
69744;SDS011;57015;50.120;-5.168;2023-03-23T13:40:11;11.20;;;1.23;;
69744;SDS011;57015;50.120;-5.168;2023-03-23T13:42:48;9.37;;;1.70;;
69744;SDS011;57015;50.120;-5.168;2023-03-23T13:50:58;14.52;;;1.52;;
69744;SDS011;57015;50.120;-5.168;2023-03-23T13:56:13;11.73;;;1.47;;
69744;SDS011;57015;50.120;-5.168;2023-03-23T13:58:45;14.35;;;1.42;;
69744;SDS011;57015;50.120;-5.168;2023-03-23T14:01:16;16.33;;;0.70;;
69744;SDS011;57015;50.120;-5.168;2023-03-23T14:03:46;9.25;;;0.90;;
69744;SDS011;57015;50.120;-5.168;2023-03-23T14:06:16;11.10;;;1.20;;
69744;SDS011;57015;50.120;-5.168;2023-03-23T14:08:45;5.93;;;0.87;;
69744;SDS011;57015;50.120;-5.168;2023-03-23T14:11:24;9.63;;;1.05;;
69744;SDS011;57015;50.120;-5.168;2023-03-23T14:14:04;13.15;;;1.73;;
69744;SDS011;57015;50.120;-5.168;2023-03-23T14:18:58;8.23;;;1.13;;
69744;SDS011;57015;50.120;-5.168;2023-03-23T14:21:30;6.78;;;1.17;;
69744;SDS011;57015;50.120;-5.168;2023-03-23T14:24:17;7.45;;;1.17;;
69744;SDS011;57015;50.120;-5.168;2023-03-23T14:26:48;5.10;;;0.70;;
69744;SDS011;57015;50.120;-5.168;2023-03-23T14:29:13;10.27;;;1.20;;
69744;SDS011;57015;50.120;-5.168;2023-03-23T14:31:39;13.52;;;2.28;;
69744;SDS011;57015;50.120;-5.168;2023-03-23T14:34:12;17.50;;;2.17;;
69744;SDS011;57015;50.120;-5.168;2023-03-23T14:36:39;23.13;;;3.22;;
69744;SDS011;57015;50.120;-5.168;2023-03-23T14:41:47;18.60;;;2.72;;
69744;SDS011;57015;50.120;-5.168;2023-03-23T14:44:14;22.07;;;2.80;;
69744;SDS011;57015;50.120;-5.168;2023-03-23T14:46:43;18.95;;;3.53;;
69744;SDS011;57015;50.120;-5.168;2023-03-23T14:49:16;23.73;;;3.22;;
69744;SDS011;57015;50.120;-5.168;2023-03-23T14:51:49;24.42;;;2.55;;
69744;SDS011;57015;50.120;-5.168;2023-03-23T14:54:20;27.03;;;3.33;;
69744;SDS011;57015;50.120;-5.168;2023-03-23T14:56:49;27.42;;;3.13;;
69744;SDS011;57015;50.120;-5.168;2023-03-23T14:59:15;23.30;;;3.83;;
69744;SDS011;57015;50.120;-5.168;2023-03-23T15:01:41;24.17;;;2.47;;
69744;SDS011;57015;50.120;-5.168;2023-03-23T15:06:36;18.00;;;2.30;;
69744;SDS011;57015;50.120;-5.168;2023-03-23T15:09:13;25.90;;;3.33;;
69744;SDS011;57015;50.120;-5.168;2023-03-23T15:11:43;17.98;;;2.70;;
69744;SDS011;57015;50.120;-5.168;2023-03-23T15:14:10;20.83;;;2.30;;
69744;SDS011;57015;50.120;-5.168;2023-03-23T15:16:45;24.90;;;3.75;;
69744;SDS011;57015;50.120;-5.168;2023-03-23T15:19:15;25.42;;;2.95;;
69744;SDS011;57015;50.120;-5.168;2023-03-23T15:21:46;20.83;;;2.75;;
69744;SDS011;57015;50.120;-5.168;2023-03-23T15:26:45;23.80;;;1.97;;
69744;SDS011;57015;50.120;-5.168;2023-03-23T15:29:15;18.27;;;3.03;;
69744;SDS011;57015;50.120;-5.168;2023-03-23T15:31:42;18.77;;;2.38;;
69744;SDS011;57015;50.120;-5.168;2023-03-23T15:34:30;14.57;;;2.13;;
69744;SDS011;57015;50.120;-5.168;2023-03-23T15:36:58;15.80;;;2.27;;
69744;SDS011;57015;50.120;-5.168;2023-03-23T15:39:28;20.83;;;2.65;;
69744;SDS011;57015;50.120;-5.168;2023-03-23T15:41:54;19.35;;;2.35;;
69744;SDS011;57015;50.120;-5.168;2023-03-23T15:44:28;21.98;;;2.35;;
69744;SDS011;57015;50.120;-5.168;2023-03-23T15:47:03;17.55;;;1.75;;
69744;SDS011;57015;50.120;-5.168;2023-03-23T15:49:37;20.47;;;2.87;;
69744;SDS011;57015;50.120;-5.168;2023-03-23T15:52:02;16.52;;;2.15;;
69744;SDS011;57015;50.120;-5.168;2023-03-23T15:54:29;16.77;;;2.00;;
69744;SDS011;57015;50.120;-5.168;2023-03-23T15:56:56;16.50;;;1.83;;
69744;SDS011;57015;50.120;-5.168;2023-03-23T15:59:21;18.70;;;2.50;;
69744;SDS011;57015;50.120;-5.168;2023-03-23T16:01:46;21.27;;;2.53;;
69744;SDS011;57015;50.120;-5.168;2023-03-23T16:04:16;13.93;;;1.95;;
69744;SDS011;57015;50.120;-5.168;2023-03-23T16:06:43;17.43;;;2.13;;
69744;SDS011;57015;50.120;-5.168;2023-03-23T16:09:12;14.80;;;1.70;;
69744;SDS011;57015;50.120;-5.168;2023-03-23T16:11:41;19.65;;;2.60;;
69744;SDS011;57015;50.120;-5.168;2023-03-23T16:14:07;17.20;;;1.90;;
69744;SDS011;57015;50.120;-5.168;2023-03-23T16:16:33;15.48;;;1.98;;
69744;SDS011;57015;50.120;-5.168;2023-03-23T16:19:02;14.67;;;2.30;;
69744;SDS011;57015;50.120;-5.168;2023-03-23T16:21:27;17.10;;;2.30;;
69744;SDS011;57015;50.120;-5.168;2023-03-23T16:23:53;21.90;;;2.10;;
69744;SDS011;57015;50.120;-5.168;2023-03-23T16:26:18;16.23;;;1.88;;
69744;SDS011;57015;50.120;-5.168;2023-03-23T16:28:44;15.23;;;1.97;;
69744;SDS011;57015;50.120;-5.168;2023-03-23T16:31:10;19.47;;;2.60;;
69744;SDS011;57015;50.120;-5.168;2023-03-23T16:33:35;12.27;;;1.75;;